Time;durP1;ratioP1;P1;durP2;ratioP2;P2;SDS_P1;SDS_P2;PMS_P1;PMS_P2;Temp;Humidity;BMP_temperature;BMP_pressure;BME280_temperature;BME280_humidity;BME280_pressure;Samples;Min_cycle;Max_cycle;Signal;HPM_P1;HPM_P2
2022/01/18 00:00:47;;;;;;;0.70;0.70;;;5.50;99.90;;;;;;5071261;28;20048;-85
2022/01/18 00:03:14;;;;;;;0.90;0.90;;;5.40;99.90;;;;;;5050030;28;20075;-85
2022/01/18 00:05:45;;;;;;;1.25;1.20;;;5.40;99.90;;;;;;5073383;28;20064;-85
2022/01/18 00:08:12;;;;;;;0.80;0.80;;;5.40;99.90;;;;;;5060120;28;20032;-84
2022/01/18 00:10:37;;;;;;;0.80;0.80;;;5.40;99.90;;;;;;5047605;28;20060;-84
2022/01/18 00:15:55;;;;;;;0.60;0.60;;;5.30;99.90;;;;;;5084806;28;20405;-85
2022/01/18 00:18:21;;;;;;;0.70;0.70;;;5.20;99.90;;;;;;5061819;28;20040;-84
2022/01/18 00:23:23;;;;;;;6.70;2.05;;;5.20;99.90;;;;;;5078220;28;20048;-86
2022/01/18 00:25:52;;;;;;;0.80;0.80;;;5.20;99.90;;;;;;5070801;28;20045;-85
2022/01/18 00:28:19;;;;;;;0.77;0.77;;;5.20;99.90;;;;;;5072749;28;20059;-85
2022/01/18 00:35:46;;;;;;;0.70;0.70;;;5.30;99.90;;;;;;5072852;28;20131;-85
2022/01/18 00:38:53;;;;;;;1.30;1.05;;;5.30;99.90;;;;;;5074366;28;20037;-86
2022/01/18 00:41:00;;;;;;;0.73;0.73;;;5.30;99.90;;;;;;5067579;28;20189;-85
2022/01/18 00:43:26;;;;;;;0.98;0.98;;;5.30;99.90;;;;;;5069769;28;20077;-86
2022/01/18 00:45:51;;;;;;;0.85;0.85;;;5.30;99.90;;;;;;5071273;28;20477;-86
2022/01/18 00:48:18;;;;;;;0.70;0.70;;;5.30;99.90;;;;;;5075964;28;20052;-85
2022/01/18 00:50:45;;;;;;;0.63;0.63;;;5.30;99.90;;;;;;5060256;28;20041;-85
2022/01/18 00:53:15;;;;;;;1.50;1.17;;;5.30;99.90;;;;;;5074566;28;20425;-85
2022/01/18 00:56:03;;;;;;;0.60;0.60;;;5.30;99.90;;;;;;5072197;28;20044;-85
2022/01/18 00:58:28;;;;;;;0.60;0.60;;;5.30;99.90;;;;;;5068720;28;20052;-86
2022/01/18 01:00:54;;;;;;;0.68;0.68;;;5.30;99.90;;;;;;5073609;28;20080;-85
2022/01/18 01:03:19;;;;;;;0.90;0.90;;;5.50;99.90;;;;;;5077863;28;20505;-86
2022/01/18 01:05:45;;;;;;;2.08;0.75;;;5.40;99.90;;;;;;5048303;28;20104;-86
2022/01/18 01:08:10;;;;;;;0.77;0.77;;;5.40;99.90;;;;;;5079351;28;20052;-85
2022/01/18 01:10:36;;;;;;;0.60;0.60;;;5.40;99.90;;;;;;5057443;28;20048;-85
2022/01/18 01:13:02;;;;;;;1.00;1.00;;;5.50;99.90;;;;;;5054440;28;20148;-86
2022/01/18 01:15:31;;;;;;;0.60;0.60;;;5.50;99.90;;;;;;5071678;28;20037;-85
2022/01/18 01:18:30;;;;;;;1.25;1.15;;;5.50;99.90;;;;;;5054640;28;20121;-84
2022/01/18 01:34:58;;;;;;;0.80;0.80;;;5.40;99.90;;;;;;5065537;28;20055;-85
2022/01/18 01:41:41;;;;;;;0.60;0.60;;;5.30;99.90;;;;;;5063374;28;20438;-85
2022/01/18 01:43:12;;;;;;;0.85;0.85;;;5.30;99.90;;;;;;5076170;28;20154;-85
2022/01/18 01:45:39;;;;;;;0.70;0.70;;;5.30;99.90;;;;;;5049668;28;20051;-85
2022/01/18 01:48:05;;;;;;;0.70;0.70;;;5.20;99.90;;;;;;5071595;28;20056;-84
2022/01/18 01:50:43;;;;;;;0.70;0.70;;;5.20;99.90;;;;;;5076150;28;20029;-84
2022/01/18 01:53:10;;;;;;;0.60;0.60;;;5.20;99.90;;;;;;5058569;28;20049;-84
2022/01/18 01:55:35;;;;;;;3.53;0.70;;;5.20;99.90;;;;;;5075512;28;20104;-84
2022/01/18 01:58:01;;;;;;;0.70;0.70;;;5.10;99.90;;;;;;5078741;28;20032;-85
2022/01/18 02:00:27;;;;;;;0.88;0.88;;;5.10;99.90;;;;;;5077852;28;20036;-85
2022/01/18 02:02:55;;;;;;;0.70;0.70;;;5.10;99.90;;;;;;5073054;28;20036;-85
2022/01/18 02:05:22;;;;;;;1.92;1.20;;;5.00;99.90;;;;;;5082552;28;20044;-85
2022/01/18 02:07:49;;;;;;;0.60;0.60;;;5.00;99.90;;;;;;5077502;28;20056;-85
2022/01/18 02:10:14;;;;;;;0.70;0.70;;;5.00;99.90;;;;;;5070627;28;20037;-85
2022/01/18 02:12:40;;;;;;;0.70;0.70;;;5.00;99.90;;;;;;5057035;28;20099;-84
2022/01/18 02:15:17;;;;;;;0.80;0.80;;;5.00;99.90;;;;;;5072643;28;20063;-85
2022/01/18 02:23:21;;;;;;;0.50;0.50;;;5.10;99.90;;;;;;5080625;28;20055;-85
2022/01/18 02:25:46;;;;;;;0.60;0.60;;;5.10;99.90;;;;;;5080134;28;20045;-85
2022/01/18 02:28:13;;;;;;;0.70;0.70;;;5.10;99.90;;;;;;5064909;28;20067;-84
2022/01/18 02:30:38;;;;;;;0.70;0.70;;;5.10;99.90;;;;;;5072696;28;20158;-85
2022/01/18 02:33:04;;;;;;;1.48;0.80;;;5.10;99.90;;;;;;5055589;28;20076;-85
2022/01/18 02:35:36;;;;;;;0.70;0.70;;;5.10;99.90;;;;;;5058546;28;20048;-85
2022/01/18 02:38:03;;;;;;;0.70;0.70;;;5.10;99.90;;;;;;5060667;28;20100;-85
2022/01/18 02:40:30;;;;;;;0.70;0.70;;;5.10;99.90;;;;;;5052987;28;20037;-85
2022/01/18 02:43:46;;;;;;;0.52;0.52;;;5.10;99.90;;;;;;5071371;28;20041;-85
2022/01/18 02:45:47;;;;;;;0.70;0.70;;;5.10;99.90;;;;;;5071517;28;20375;-85
2022/01/18 02:48:13;;;;;;;0.80;0.80;;;5.20;99.90;;;;;;5064567;28;20074;-84
2022/01/18 02:50:38;;;;;;;0.60;0.60;;;5.20;99.90;;;;;;5059621;28;20064;-85
2022/01/18 02:53:04;;;;;;;0.60;0.60;;;5.10;99.90;;;;;;5079092;28;20051;-85
2022/01/18 02:55:30;;;;;;;0.70;0.70;;;5.10;99.90;;;;;;5078938;28;20047;-85
2022/01/18 02:58:02;;;;;;;0.70;0.70;;;5.10;99.90;;;;;;5075494;28;20059;-85
2022/01/18 03:00:43;;;;;;;0.60;0.60;;;5.10;99.90;;;;;;5066213;28;20040;-85
2022/01/18 03:03:16;;;;;;;0.65;0.65;;;5.10;99.90;;;;;;5055067;28;20051;-85
2022/01/18 03:05:43;;;;;;;0.60;0.60;;;5.10;99.90;;;;;;5079040;28;20092;-84
2022/01/18 03:08:11;;;;;;;0.95;0.90;;;5.10;99.90;;;;;;5061351;28;20052;-85
2022/01/18 03:10:40;;;;;;;0.60;0.60;;;5.10;99.90;;;;;;5080571;28;20068;-85
2022/01/18 03:13:06;;;;;;;0.60;0.60;;;5.10;99.90;;;;;;5070789;28;20055;-84
2022/01/18 03:15:33;;;;;;;1.52;1.17;;;5.10;99.90;;;;;;5075840;28;20096;-84
2022/01/18 03:18:00;;;;;;;0.73;0.73;;;5.20;99.90;;;;;;5070648;28;20053;-84
2022/01/18 03:20:26;;;;;;;0.60;0.60;;;5.20;99.90;;;;;;5061112;28;20044;-85
2022/01/18 03:22:52;;;;;;;0.60;0.60;;;5.20;99.90;;;;;;5072681;28;20051;-84
2022/01/18 03:28:05;;;;;;;0.82;0.80;;;5.20;99.90;;;;;;5073153;28;20079;-85
2022/01/18 03:30:40;;;;;;;0.60;0.60;;;5.20;99.90;;;;;;5080647;28;20029;-83
2022/01/18 03:33:11;;;;;;;1.00;0.90;;;5.30;99.90;;;;;;5053549;28;20069;-85
2022/01/18 03:35:38;;;;;;;0.70;0.70;;;5.30;99.90;;;;;;5059991;28;20037;-85
2022/01/18 03:38:05;;;;;;;15.73;1.35;;;5.30;99.90;;;;;;5049529;28;20048;-85
2022/01/18 03:40:30;;;;;;;0.50;0.50;;;5.40;99.90;;;;;;5063233;28;20044;-85
2022/01/18 03:42:58;;;;;;;0.60;0.60;;;5.40;99.90;;;;;;5081973;28;20162;-85
2022/01/18 03:45:31;;;;;;;0.60;0.60;;;5.40;99.90;;;;;;5072973;28;20092;-85
2022/01/18 03:48:02;;;;;;;1.10;0.97;;;5.40;99.90;;;;;;5055001;28;20036;-85
2022/01/18 03:50:28;;;;;;;0.60;0.60;;;5.40;99.90;;;;;;5071725;28;21258;-85
2022/01/18 03:52:54;;;;;;;0.70;0.70;;;5.50;99.90;;;;;;5053791;28;20041;-85
2022/01/18 03:55:21;;;;;;;0.70;0.70;;;5.50;99.90;;;;;;5077479;28;20044;-86
2022/01/18 03:57:48;;;;;;;0.57;0.57;;;5.50;99.90;;;;;;5051016;28;20100;-85
2022/01/18 04:00:16;;;;;;;0.70;0.70;;;5.50;99.90;;;;;;5058151;28;20029;-85
2022/01/18 04:02:42;;;;;;;0.60;0.60;;;5.50;99.90;;;;;;5074887;28;20067;-86
2022/01/18 04:05:08;;;;;;;0.70;0.70;;;5.50;99.90;;;;;;5075238;28;20036;-85
2022/01/18 04:07:34;;;;;;;0.60;0.60;;;5.50;99.90;;;;;;5067370;28;20053;-86
2022/01/18 04:10:00;;;;;;;0.60;0.60;;;5.50;99.90;;;;;;5066634;28;20048;-85
2022/01/18 04:12:28;;;;;;;0.60;0.60;;;5.50;99.90;;;;;;5049717;28;20048;-85
2022/01/18 04:14:54;;;;;;;0.85;0.85;;;5.50;99.90;;;;;;5076242;28;20033;-85
2022/01/18 04:28:34;;;;;;;1.05;0.95;;;5.60;99.90;;;;;;5070470;28;20132;-84
2022/01/18 04:31:00;;;;;;;0.70;0.70;;;5.60;99.90;;;;;;5070030;28;20045;-84
2022/01/18 04:33:26;;;;;;;0.70;0.70;;;5.60;99.90;;;;;;5076118;28;20059;-84
2022/01/18 04:35:51;;;;;;;0.70;0.70;;;5.60;99.90;;;;;;5050517;28;20139;-84
2022/01/18 04:38:17;;;;;;;0.63;0.63;;;5.60;99.90;;;;;;5070073;28;20039;-85
2022/01/18 04:40:45;;;;;;;0.60;0.60;;;5.60;99.90;;;;;;5069209;28;20037;-84
2022/01/18 04:48:26;;;;;;;0.52;0.52;;;5.60;99.90;;;;;;5070900;28;20048;-83
2022/01/18 04:51:28;;;;;;;0.60;0.60;;;5.60;99.90;;;;;;5070384;28;20047;-84
2022/01/18 04:53:56;;;;;;;0.60;0.60;;;5.60;99.90;;;;;;5041164;28;20060;-85
2022/01/18 04:59:18;;;;;;;0.70;0.70;;;5.60;99.90;;;;;;5038407;28;20041;-83
2022/01/18 05:01:46;;;;;;;0.60;0.60;;;5.60;99.90;;;;;;5075375;28;20115;-83
2022/01/18 05:04:12;;;;;;;0.70;0.70;;;5.60;99.90;;;;;;5079184;28;20090;-84
2022/01/18 05:06:38;;;;;;;0.60;0.60;;;5.60;99.90;;;;;;5066581;28;20047;-83
2022/01/18 05:09:08;;;;;;;0.68;0.68;;;5.60;99.90;;;;;;5072887;28;20069;-85
2022/01/18 05:11:39;;;;;;;0.63;0.63;;;5.60;99.90;;;;;;5079386;28;20413;-84
2022/01/18 05:17:02;;;;;;;;;;;5.60;99.90;;;;;;5070593;28;20107;-84
2022/01/18 05:20:35;;;;;;;0.60;0.60;;;5.60;99.90;;;;;;5061470;28;19963;-84
2022/01/18 05:24:57;;;;;;;0.60;0.60;;;5.60;99.90;;;;;;5076829;28;20111;-84
2022/01/18 05:27:23;;;;;;;0.60;0.60;;;5.60;99.90;;;;;;5059974;28;20052;-84
2022/01/18 05:29:49;;;;;;;0.70;0.70;;;5.60;99.90;;;;;;5056757;28;20041;-84
2022/01/18 05:32:15;;;;;;;0.60;0.60;;;5.60;99.90;;;;;;5055793;28;20040;-85
2022/01/18 05:34:44;;;;;;;0.80;0.80;;;5.60;99.90;;;;;;5077476;28;20048;-84
2022/01/18 05:37:10;;;;;;;0.68;0.68;;;5.70;99.90;;;;;;5062948;28;20041;-84
2022/01/18 05:39:35;;;;;;;0.50;0.50;;;5.60;99.90;;;;;;5063525;28;20068;-85
2022/01/18 05:42:01;;;;;;;0.68;0.68;;;5.60;99.90;;;;;;5073348;28;20048;-85
2022/01/18 05:44:27;;;;;;;0.82;0.82;;;5.60;99.90;;;;;;5077120;28;20413;-85
2022/01/18 05:46:52;;;;;;;0.70;0.70;;;5.60;99.90;;;;;;5074230;28;20048;-85
2022/01/18 05:49:20;;;;;;;0.60;0.60;;;5.60;99.90;;;;;;5072367;28;20036;-85
2022/01/18 05:51:47;;;;;;;0.60;0.60;;;5.60;99.90;;;;;;5051436;28;20062;-85
2022/01/18 05:54:12;;;;;;;0.80;0.80;;;5.60;99.90;;;;;;5082476;28;20393;-85
2022/01/18 05:56:38;;;;;;;0.60;0.60;;;5.60;99.90;;;;;;5079168;28;20044;-85
2022/01/18 05:59:06;;;;;;;0.70;0.70;;;5.60;99.90;;;;;;5076223;28;20055;-85
2022/01/18 06:01:34;;;;;;;0.60;0.60;;;5.60;99.90;;;;;;5072470;28;20049;-85
2022/01/18 06:09:13;;;;;;;0.65;0.65;;;5.60;99.90;;;;;;5070608;28;20041;-85
2022/01/18 06:11:39;;;;;;;0.60;0.60;;;5.60;99.90;;;;;;5064501;28;20044;-85
2022/01/18 06:14:05;;;;;;;1.58;0.98;;;5.60;99.90;;;;;;5057362;28;20044;-84
2022/01/18 06:16:30;;;;;;;0.60;0.60;;;5.60;99.90;;;;;;5073763;28;20053;-85
2022/01/18 06:18:56;;;;;;;0.70;0.70;;;5.60;99.90;;;;;;5059078;28;20096;-84
2022/01/18 06:21:22;;;;;;;0.60;0.60;;;5.60;99.90;;;;;;5062874;28;20040;-84
2022/01/18 06:23:48;;;;;;;0.68;0.68;;;5.60;99.90;;;;;;5071973;28;20045;-85
2022/01/18 06:26:15;;;;;;;2.28;2.17;;;5.60;99.90;;;;;;5081167;28;20370;-85
2022/01/18 06:28:45;;;;;;;0.60;0.60;;;5.60;99.90;;;;;;5080942;28;20041;-84
2022/01/18 06:31:10;;;;;;;0.50;0.50;;;5.60;99.90;;;;;;5071227;28;20033;-85
2022/01/18 06:33:36;;;;;;;2.05;0.95;;;5.50;99.90;;;;;;5069142;28;20474;-84
2022/01/18 06:36:02;;;;;;;0.60;0.60;;;5.60;99.90;;;;;;5074985;28;20046;-84
2022/01/18 06:38:28;;;;;;;0.60;0.60;;;5.60;99.90;;;;;;5070961;28;20044;-85
2022/01/18 06:40:54;;;;;;;0.50;0.50;;;5.60;99.90;;;;;;5076063;28;20155;-85
2022/01/18 06:43:19;;;;;;;0.55;0.55;;;5.60;99.90;;;;;;5062032;28;20129;-84
2022/01/18 06:45:46;;;;;;;0.47;0.47;;;5.50;99.90;;;;;;5055536;28;20127;-85
2022/01/18 06:48:11;;;;;;;0.75;0.75;;;5.60;99.90;;;;;;5055860;28;20048;-85
2022/01/18 06:50:37;;;;;;;0.70;0.70;;;5.60;99.90;;;;;;5079866;28;20036;-85
2022/01/18 06:53:03;;;;;;;0.60;0.60;;;5.50;99.90;;;;;;5074913;28;20128;-84
2022/01/18 06:55:29;;;;;;;0.60;0.60;;;5.50;99.90;;;;;;5061508;28;20051;-84
2022/01/18 06:57:56;;;;;;;1.55;0.93;;;5.60;99.90;;;;;;5078948;28;20048;-85
2022/01/18 07:00:21;;;;;;;0.80;0.80;;;5.50;99.90;;;;;;5056333;28;20045;-85
2022/01/18 07:02:47;;;;;;;0.68;0.68;;;5.50;99.90;;;;;;5071225;28;20043;-85
2022/01/18 07:05:12;;;;;;;0.70;0.70;;;5.50;99.90;;;;;;5050288;28;20095;-85
2022/01/18 07:07:39;;;;;;;0.60;0.60;;;5.50;99.90;;;;;;5047030;28;20052;-86
2022/01/18 07:10:06;;;;;;;0.60;0.60;;;5.50;99.90;;;;;;5083076;28;20037;-85
2022/01/18 07:12:34;;;;;;;0.60;0.60;;;5.50;99.90;;;;;;5070474;28;20041;-85
2022/01/18 07:15:03;;;;;;;0.70;0.70;;;5.50;99.90;;;;;;5059036;28;20505;-84
2022/01/18 07:17:29;;;;;;;0.60;0.60;;;5.50;99.90;;;;;;5056499;28;20122;-84
2022/01/18 07:19:55;;;;;;;0.60;0.60;;;5.50;99.90;;;;;;5058495;28;20509;-85
2022/01/18 07:22:20;;;;;;;0.60;0.60;;;5.50;99.90;;;;;;5072439;28;20048;-84
2022/01/18 07:24:47;;;;;;;0.80;0.80;;;5.50;99.90;;;;;;5055175;28;20120;-85
2022/01/18 07:27:14;;;;;;;0.52;0.52;;;5.50;99.90;;;;;;5071561;28;20045;-84
2022/01/18 07:29:43;;;;;;;0.55;0.55;;;5.50;99.90;;;;;;5053712;28;20033;-84
2022/01/18 07:32:10;;;;;;;0.60;0.60;;;5.50;99.90;;;;;;5055676;28;20044;-84
2022/01/18 07:34:41;;;;;;;0.75;0.75;;;5.50;99.90;;;;;;5060758;28;20040;-84
2022/01/18 07:37:07;;;;;;;0.70;0.70;;;5.50;99.90;;;;;;5057295;28;20102;-84
2022/01/18 07:39:33;;;;;;;0.57;0.57;;;5.50;99.90;;;;;;5058559;28;20075;-84
2022/01/18 07:41:58;;;;;;;0.60;0.60;;;5.50;99.90;;;;;;5059284;28;20040;-84
2022/01/18 07:44:24;;;;;;;0.70;0.70;;;5.50;99.90;;;;;;5076855;28;20047;-83
2022/01/18 07:46:50;;;;;;;0.70;0.70;;;5.50;99.90;;;;;;5074716;28;20108;-82
2022/01/18 07:49:15;;;;;;;0.55;0.55;;;5.50;99.90;;;;;;5070611;28;20090;-82
2022/01/18 07:51:41;;;;;;;0.70;0.70;;;5.50;99.90;;;;;;5077244;28;20051;-83
2022/01/18 07:54:08;;;;;;;0.50;0.50;;;5.50;99.90;;;;;;5078142;28;20674;-83
2022/01/18 07:56:34;;;;;;;0.60;0.60;;;5.40;99.90;;;;;;5074909;28;20041;-83
2022/01/18 07:58:59;;;;;;;0.60;0.60;;;5.40;99.90;;;;;;5077910;28;20060;-82
2022/01/18 08:01:25;;;;;;;0.60;0.60;;;5.30;99.90;;;;;;5072734;28;20040;-83
2022/01/18 08:03:51;;;;;;;0.60;0.60;;;5.30;99.90;;;;;;5076021;28;20044;-83
2022/01/18 08:06:16;;;;;;;0.60;0.60;;;5.20;99.90;;;;;;5070855;28;20071;-84
2022/01/18 08:08:42;;;;;;;0.60;0.60;;;5.10;99.90;;;;;;5075850;28;20037;-83
2022/01/18 08:11:08;;;;;;;0.57;0.57;;;5.00;99.90;;;;;;5056138;28;20119;-83
2022/01/18 08:13:41;;;;;;;0.70;0.70;;;5.00;99.90;;;;;;5073769;28;20117;-84
2022/01/18 08:18:59;;;;;;;0.63;0.63;;;4.90;99.90;;;;;;5056784;28;20052;-83
2022/01/18 08:21:26;;;;;;;0.70;0.70;;;4.90;99.90;;;;;;5071306;28;20040;-83
2022/01/18 08:23:51;;;;;;;0.70;0.70;;;4.80;99.90;;;;;;5076824;28;20059;-83
2022/01/18 08:26:18;;;;;;;0.80;0.80;;;4.80;99.90;;;;;;5075070;28;20044;-83
2022/01/18 08:28:45;;;;;;;0.63;0.63;;;4.80;99.90;;;;;;5071970;28;20036;-83
2022/01/18 08:31:11;;;;;;;0.60;0.60;;;4.90;99.90;;;;;;5075559;28;20052;-84
2022/01/18 08:33:37;;;;;;;0.63;0.63;;;4.90;99.90;;;;;;5076355;28;20100;-84
2022/01/18 08:36:06;;;;;;;0.70;0.70;;;5.00;99.90;;;;;;5076962;28;20047;-83
2022/01/18 08:38:32;;;;;;;0.60;0.60;;;5.00;99.90;;;;;;5075186;28;20036;-83
2022/01/18 08:40:59;;;;;;;0.63;0.63;;;5.10;99.90;;;;;;5072952;28;20044;-84
2022/01/18 08:43:26;;;;;;;0.65;0.65;;;5.20;99.90;;;;;;5054183;28;20143;-83
2022/01/18 08:45:51;;;;;;;1.17;1.08;;;5.20;99.90;;;;;;5081576;28;20100;-83
2022/01/18 08:48:17;;;;;;;0.60;0.60;;;5.30;99.90;;;;;;5078134;28;20044;-81
2022/01/18 08:50:43;;;;;;;0.57;0.57;;;5.40;99.90;;;;;;5075179;28;20056;-82
2022/01/18 08:53:09;;;;;;;0.60;0.60;;;5.50;99.90;;;;;;5078907;28;20053;-82
2022/01/18 08:55:35;;;;;;;0.60;0.60;;;5.50;99.90;;;;;;5081458;28;20054;-82
2022/01/18 08:58:02;;;;;;;0.60;0.60;;;5.50;99.90;;;;;;5076050;28;20045;-82
2022/01/18 09:00:27;;;;;;;0.70;0.70;;;5.50;99.90;;;;;;5073918;28;21314;-83
2022/01/18 09:02:53;;;;;;;0.80;0.80;;;5.80;99.90;;;;;;5055879;28;20044;-82
2022/01/18 09:05:22;;;;;;;0.60;0.60;;;5.60;99.90;;;;;;5076156;28;20068;-81
2022/01/18 09:07:48;;;;;;;0.70;0.70;;;5.70;99.90;;;;;;5068806;28;20049;-82
2022/01/18 09:10:14;;;;;;;0.68;0.68;;;5.70;99.90;;;;;;5070455;28;20067;-82
2022/01/18 09:12:40;;;;;;;0.50;0.50;;;5.70;99.90;;;;;;5078930;28;20485;-82
2022/01/18 09:15:08;;;;;;;0.70;0.70;;;5.80;99.90;;;;;;5081492;28;20032;-83
2022/01/18 09:17:38;;;;;;;0.77;0.77;;;5.80;99.90;;;;;;5076564;28;20044;-83
2022/01/18 09:20:06;;;;;;;0.70;0.70;;;5.80;99.90;;;;;;5059238;28;20147;-83
2022/01/18 09:22:38;;;;;;;0.70;0.70;;;5.80;99.90;;;;;;5074675;28;20057;-84
2022/01/18 09:25:07;;;;;;;0.60;0.60;;;5.90;99.90;;;;;;5074238;28;20104;-85
2022/01/18 09:27:33;;;;;;;6.55;5.43;;;6.00;99.90;;;;;;5079961;28;20037;-85
2022/01/18 09:29:59;;;;;;;0.73;0.73;;;6.00;99.90;;;;;;5070517;28;21701;-85
2022/01/18 09:32:28;;;;;;;0.80;0.80;;;6.00;99.90;;;;;;5067005;28;20100;-83
2022/01/18 09:34:53;;;;;;;0.70;0.70;;;6.10;99.90;;;;;;5077425;28;20547;-83
2022/01/18 09:37:19;;;;;;;0.70;0.70;;;6.10;99.90;;;;;;5052222;28;20053;-84
2022/01/18 09:39:45;;;;;;;0.98;0.98;;;6.10;99.90;;;;;;5071138;28;20302;-83
2022/01/18 09:42:12;;;;;;;0.70;0.70;;;6.20;99.90;;;;;;5055002;28;20063;-84
2022/01/18 09:44:39;;;;;;;0.60;0.60;;;6.20;99.90;;;;;;5068192;28;20094;-84
2022/01/18 09:47:05;;;;;;;0.80;0.80;;;6.30;99.90;;;;;;5054560;28;20045;-84
2022/01/18 09:49:33;;;;;;;0.60;0.60;;;6.30;99.90;;;;;;5073948;28;20032;-83
2022/01/18 09:51:59;;;;;;;0.70;0.70;;;6.30;99.90;;;;;;5078444;28;20036;-84
2022/01/18 09:54:24;;;;;;;0.80;0.80;;;6.40;99.90;;;;;;5075502;28;20151;-83
2022/01/18 09:56:50;;;;;;;0.70;0.70;;;6.40;99.90;;;;;;5051646;28;20083;-85
2022/01/18 09:59:16;;;;;;;0.60;0.60;;;6.40;99.90;;;;;;5055145;28;20075;-84
2022/01/18 10:01:42;;;;;;;0.60;0.60;;;6.50;99.90;;;;;;5078045;28;20705;-84
2022/01/18 10:04:31;;;;;;;0.60;0.60;;;6.40;99.90;;;;;;5075880;28;20104;-84
2022/01/18 10:06:57;;;;;;;0.60;0.60;;;6.40;99.90;;;;;;5078170;28;20079;-84
2022/01/18 10:09:24;;;;;;;0.60;0.60;;;6.40;99.90;;;;;;5075866;28;20051;-83
2022/01/18 10:12:22;;;;;;;0.60;0.60;;;6.40;99.90;;;;;;5061072;28;20047;-83
2022/01/18 10:14:51;;;;;;;0.65;0.65;;;6.50;99.90;;;;;;5073245;28;20049;-84
2022/01/18 10:17:29;;;;;;;0.55;0.55;;;6.50;99.90;;;;;;5078902;28;20103;-84
2022/01/18 10:20:00;;;;;;;0.88;0.88;;;6.50;99.90;;;;;;5056711;28;20051;-84
2022/01/18 10:22:34;;;;;;;0.70;0.70;;;6.50;99.90;;;;;;5067146;28;20544;-84
2022/01/18 10:25:13;;;;;;;0.70;0.70;;;6.50;99.90;;;;;;5071617;28;20070;-84
2022/01/18 10:27:39;;;;;;;0.77;0.77;;;6.50;99.90;;;;;;5051730;28;20170;-84
2022/01/18 10:30:06;;;;;;;2.28;1.73;;;6.50;99.90;;;;;;5052053;28;20063;-84
2022/01/18 10:32:38;;;;;;;0.60;0.60;;;6.50;99.90;;;;;;5071498;28;20519;-84
2022/01/18 10:35:09;;;;;;;0.80;0.80;;;6.50;99.90;;;;;;5078535;28;20042;-84
2022/01/18 10:37:41;;;;;;;0.60;0.60;;;6.40;99.90;;;;;;5070662;28;20132;-84
2022/01/18 10:40:18;;;;;;;0.85;0.85;;;6.40;99.90;;;;;;5076896;28;20095;-83
2022/01/18 10:42:44;;;;;;;0.80;0.80;;;6.50;99.90;;;;;;5060982;28;20040;-84
2022/01/18 10:45:28;;;;;;;1.90;1.15;;;6.50;99.90;;;;;;5075433;28;20043;-84
2022/01/18 10:47:59;;;;;;;0.70;0.70;;;6.60;99.90;;;;;;5074424;28;20059;-84
2022/01/18 10:50:29;;;;;;;1.33;1.08;;;6.60;99.90;;;;;;5077436;28;20489;-84
2022/01/18 10:53:15;;;;;;;0.60;0.60;;;6.70;99.90;;;;;;5069290;28;20045;-84
2022/01/18 10:55:41;;;;;;;0.80;0.80;;;6.80;99.90;;;;;;5064710;28;20036;-84
2022/01/18 10:58:12;;;;;;;0.77;0.77;;;6.80;99.90;;;;;;5075310;28;20036;-84
2022/01/18 11:00:38;;;;;;;1.58;1.35;;;6.80;99.90;;;;;;5070307;28;20094;-83
2022/01/18 11:03:06;;;;;;;0.63;0.63;;;6.80;99.90;;;;;;5068964;28;20094;-84
2022/01/18 11:05:35;;;;;;;11.25;2.08;;;6.90;99.90;;;;;;5062523;28;20044;-84
2022/01/18 11:08:04;;;;;;;0.60;0.60;;;6.90;99.90;;;;;;5079699;28;20076;-84
2022/01/18 11:10:35;;;;;;;0.80;0.80;;;6.90;99.90;;;;;;5076297;28;20092;-84
2022/01/18 11:13:05;;;;;;;0.85;0.85;;;7.00;99.90;;;;;;5075924;28;20040;-84
2022/01/18 11:15:32;;;;;;;0.60;0.60;;;7.00;99.90;;;;;;5067032;28;20047;-83
2022/01/18 11:18:05;;;;;;;0.50;0.50;;;7.00;99.90;;;;;;5054442;28;20041;-83
2022/01/18 11:20:36;;;;;;;1.03;1.03;;;7.00;99.90;;;;;;5076017;28;20129;-83
2022/01/18 11:23:04;;;;;;;0.60;0.60;;;7.00;99.90;;;;;;5074530;28;20283;-83
2022/01/18 11:25:30;;;;;;;0.75;0.75;;;7.00;99.90;;;;;;5070172;28;20112;-83
2022/01/18 11:27:58;;;;;;;0.60;0.60;;;7.00;99.90;;;;;;5079235;28;20048;-83
2022/01/18 11:30:27;;;;;;;1.60;1.50;;;7.00;99.90;;;;;;5061781;28;20444;-84
2022/01/18 11:32:55;;;;;;;0.60;0.60;;;7.10;99.90;;;;;;5064481;28;20127;-83
2022/01/18 11:35:28;;;;;;;0.60;0.60;;;7.10;99.90;;;;;;5060508;28;20060;-83
2022/01/18 11:37:54;;;;;;;0.60;0.60;;;7.10;99.90;;;;;;5078488;28;20040;-83
2022/01/18 11:40:19;;;;;;;0.65;0.65;;;7.10;99.90;;;;;;5051726;28;20102;-83
2022/01/18 11:42:53;;;;;;;0.70;0.70;;;7.10;99.90;;;;;;5056559;28;20453;-84
2022/01/18 11:45:24;;;;;;;0.68;0.68;;;7.10;99.90;;;;;;5056953;28;20047;-83
2022/01/18 11:48:20;;;;;;;1.27;1.17;;;7.10;99.90;;;;;;5076260;28;20120;-83
2022/01/18 11:50:50;;;;;;;1.95;1.35;;;7.10;99.90;;;;;;5051056;28;20185;-84
2022/01/18 11:53:29;;;;;;;0.60;0.60;;;7.20;99.90;;;;;;5062600;28;20076;-84
2022/01/18 11:55:57;;;;;;;0.60;0.60;;;7.20;99.90;;;;;;5056270;28;20037;-84
2022/01/18 11:58:25;;;;;;;0.60;0.60;;;7.20;99.90;;;;;;5071842;28;20033;-84
2022/01/18 12:00:57;;;;;;;0.50;0.50;;;7.20;99.90;;;;;;5056068;28;20041;-84
2022/01/18 12:03:47;;;;;;;0.70;0.70;;;7.20;99.90;;;;;;5059120;28;20060;-84
2022/01/18 12:06:12;;;;;;;0.60;0.60;;;7.20;99.90;;;;;;5067729;28;20045;-82
2022/01/18 12:08:41;;;;;;;2.08;0.90;;;7.20;99.90;;;;;;5068500;28;20108;-83
2022/01/18 12:11:20;;;;;;;0.60;0.60;;;7.20;99.90;;;;;;5071970;28;20048;-82
2022/01/18 12:13:47;;;;;;;0.60;0.60;;;7.20;99.90;;;;;;5069608;28;20493;-83
2022/01/18 12:16:26;;;;;;;0.60;0.60;;;7.20;99.90;;;;;;5065211;28;20482;-83
2022/01/18 12:18:58;;;;;;;0.90;0.90;;;7.20;99.90;;;;;;5077131;28;20033;-83
2022/01/18 12:21:27;;;;;;;0.50;0.50;;;7.20;99.90;;;;;;5079992;28;20045;-83
2022/01/18 12:23:53;;;;;;;0.50;0.50;;;7.20;99.90;;;;;;5074710;28;20095;-83
2022/01/18 12:29:25;;;;;;;0.80;0.80;;;7.20;99.90;;;;;;5074355;28;20044;-83
2022/01/18 12:32:05;;;;;;;;;;;7.20;99.90;;;;;;5053902;28;20052;-82
2022/01/18 12:34:35;;;;;;;9.15;1.58;;;7.20;99.90;;;;;;5078388;28;19916;-82
2022/01/18 12:37:11;;;;;;;4.82;0.70;;;7.20;99.90;;;;;;5065346;28;20098;-82
2022/01/18 12:45:15;;;;;;;0.70;0.70;;;7.20;99.90;;;;;;5079636;28;20165;-83
2022/01/18 12:47:51;;;;;;;0.60;0.60;;;7.10;99.90;;;;;;5072593;28;20102;-83
2022/01/18 12:50:28;;;;;;;0.60;0.60;;;7.10;99.90;;;;;;5069307;28;20090;-83
2022/01/18 12:52:58;;;;;;;0.70;0.70;;;7.10;99.90;;;;;;5069907;28;20092;-83
2022/01/18 12:55:38;;;;;;;0.80;0.80;;;7.10;99.90;;;;;;5066767;28;20044;-83
2022/01/18 12:58:13;;;;;;;3.85;0.90;;;7.20;99.90;;;;;;5075185;28;20049;-84
2022/01/18 13:00:47;;;;;;;0.70;0.70;;;7.10;99.90;;;;;;5076563;28;20045;-83
2022/01/18 13:03:28;;;;;;;0.70;0.70;;;7.20;99.90;;;;;;5075511;28;20032;-84
2022/01/18 13:05:58;;;;;;;1.10;1.00;;;7.20;99.90;;;;;;5054570;28;20041;-84
2022/01/18 13:08:38;;;;;;;0.60;0.60;;;7.10;99.90;;;;;;5071493;28;20159;-84
2022/01/18 13:11:04;;;;;;;0.68;0.68;;;7.20;99.90;;;;;;5070398;28;20506;-84
2022/01/18 13:13:32;;;;;;;0.68;0.68;;;7.10;99.90;;;;;;5054446;28;20103;-84
2022/01/18 13:26:48;;;;;;;0.60;0.60;;;7.10;99.90;;;;;;5063518;28;20084;-84
2022/01/18 13:29:23;;;;;;;3.53;1.10;;;7.10;99.90;;;;;;5078811;28;20098;-84
2022/01/18 13:31:59;;;;;;;0.60;0.60;;;7.10;99.90;;;;;;5081280;28;20101;-83
2022/01/18 13:34:30;;;;;;;1.42;1.33;;;7.20;99.90;;;;;;5074422;28;20128;-84
2022/01/18 13:36:56;;;;;;;1.25;1.15;;;7.30;99.90;;;;;;5066908;28;20068;-85
2022/01/18 13:39:25;;;;;;;0.98;0.98;;;7.40;99.90;;;;;;5054517;28;20102;-85
2022/01/18 13:41:52;;;;;;;1.15;1.08;;;7.40;99.90;;;;;;5053650;28;20108;-83
2022/01/18 13:44:18;;;;;;;0.70;0.70;;;7.40;99.90;;;;;;5052710;28;20076;-85
2022/01/18 13:46:44;;;;;;;0.73;0.73;;;7.40;99.90;;;;;;5068469;28;20040;-85
2022/01/18 13:49:10;;;;;;;0.60;0.60;;;7.30;99.90;;;;;;5067517;28;20091;-86
2022/01/18 13:51:36;;;;;;;0.68;0.68;;;7.20;99.90;;;;;;5065720;28;20100;-85
2022/01/18 13:54:08;;;;;;;3.20;2.35;;;7.20;99.90;;;;;;5062169;28;20047;-85
2022/01/18 13:56:45;;;;;;;0.60;0.60;;;7.30;99.90;;;;;;5066300;28;20044;-86
2022/01/18 13:59:11;;;;;;;1.40;1.30;;;7.20;99.90;;;;;;5047065;28;20139;-85
2022/01/18 14:01:38;;;;;;;0.80;0.80;;;7.10;99.90;;;;;;5048653;28;20068;-84
2022/01/18 14:04:19;;;;;;;0.70;0.70;;;7.00;99.90;;;;;;5073277;28;20087;-85
2022/01/18 14:06:46;;;;;;;0.70;0.70;;;7.00;99.90;;;;;;5063645;28;20044;-86
2022/01/18 14:09:14;;;;;;;1.58;0.75;;;7.00;99.90;;;;;;5051037;28;20056;-86
2022/01/18 14:11:51;;;;;;;0.68;0.68;;;7.00;99.90;;;;;;5045186;28;20051;-85
2022/01/18 14:14:22;;;;;;;2.67;2.45;;;7.00;99.90;;;;;;5061592;28;20049;-85
2022/01/18 14:16:55;;;;;;;1.25;1.15;;;7.00;99.90;;;;;;5070847;28;20809;-85
2022/01/18 14:19:30;;;;;;;2.17;1.00;;;7.00;99.90;;;;;;5073385;28;20066;-85
2022/01/18 14:21:58;;;;;;;0.98;0.98;;;6.90;99.90;;;;;;5051925;28;20088;-85
2022/01/18 14:24:25;;;;;;;1.05;0.95;;;6.80;99.90;;;;;;5062898;28;20489;-84
2022/01/18 14:26:51;;;;;;;0.80;0.80;;;6.80;99.90;;;;;;5064394;28;20076;-85
2022/01/18 14:29:19;;;;;;;0.60;0.60;;;6.90;99.90;;;;;;5064565;28;20045;-87
2022/01/18 14:32:00;;;;;;;0.70;0.70;;;6.80;99.90;;;;;;5049783;28;20044;-86
2022/01/18 14:34:35;;;;;;;0.75;0.75;;;6.80;99.90;;;;;;5063158;28;20113;-86